Time;durP1;ratioP1;P1;durP2;ratioP2;P2;SDS_P1;SDS_P2;PMS_P1;PMS_P2;Temp;Humidity;BMP_temperature;BMP_pressure;BME280_temperature;BME280_humidity;BME280_pressure;Samples;Min_cycle;Max_cycle;Signal;HPM_P1;HPM_P2
2022/03/30 00:02:09;;;;;;;6.40;4.78;;;23.60;42.70;;;;;;5062622;28;20120;-42
2022/03/30 00:04:38;;;;;;;4.80;4.30;;;23.60;42.60;;;;;;5052731;28;20480;-42
2022/03/30 00:07:05;;;;;;;5.40;4.30;;;23.70;42.70;;;;;;5061119;28;20024;-42
2022/03/30 00:09:32;;;;;;;6.60;4.90;;;23.60;42.60;;;;;;5053322;28;20035;-43
2022/03/30 00:11:59;;;;;;;6.38;4.60;;;23.60;42.60;;;;;;5062056;28;20108;-43
2022/03/30 00:14:25;;;;;;;5.80;4.68;;;23.60;42.60;;;;;;5062718;28;20049;-42
2022/03/30 00:16:54;;;;;;;5.93;4.50;;;23.60;42.60;;;;;;5062291;28;20063;-42
2022/03/30 00:19:20;;;;;;;5.72;4.43;;;23.60;42.70;;;;;;5062398;28;20048;-42
2022/03/30 00:21:48;;;;;;;5.55;4.65;;;23.60;42.60;;;;;;5061333;28;20048;-44
2022/03/30 00:24:14;;;;;;;4.93;4.35;;;23.60;42.70;;;;;;5062242;28;20028;-43
2022/03/30 00:26:41;;;;;;;6.50;4.95;;;23.60;42.80;;;;;;5061747;28;20032;-42
2022/03/30 00:29:07;;;;;;;5.55;4.70;;;23.60;42.80;;;;;;5062846;28;20052;-42
2022/03/30 00:31:33;;;;;;;5.15;4.45;;;23.60;42.90;;;;;;5062110;28;20025;-42
2022/03/30 00:33:59;;;;;;;4.90;4.20;;;23.60;43.00;;;;;;5062552;28;20025;-42
2022/03/30 00:36:25;;;;;;;5.28;4.40;;;23.60;43.00;;;;;;5062264;28;20030;-44
2022/03/30 00:38:51;;;;;;;6.03;5.40;;;23.60;43.10;;;;;;5061937;28;20024;-41
2022/03/30 00:41:18;;;;;;;6.07;4.65;;;23.60;43.20;;;;;;5060856;28;20032;-42
2022/03/30 00:43:44;;;;;;;5.97;5.05;;;23.60;43.20;;;;;;5061985;28;20029;-42
2022/03/30 00:46:13;;;;;;;5.72;4.75;;;23.60;43.30;;;;;;5062145;28;20084;-42
2022/03/30 00:48:40;;;;;;;5.35;4.38;;;23.60;43.30;;;;;;5061751;28;20021;-42
2022/03/30 00:51:06;;;;;;;5.43;4.90;;;23.60;43.50;;;;;;5058940;28;20032;-42
2022/03/30 00:53:32;;;;;;;6.43;5.00;;;23.60;43.50;;;;;;5060813;28;20033;-43
2022/03/30 00:55:58;;;;;;;5.35;4.50;;;23.60;43.50;;;;;;5061034;28;20031;-41
2022/03/30 00:58:25;;;;;;;5.68;4.45;;;23.50;43.50;;;;;;5061741;28;20494;-42
2022/03/30 01:00:51;;;;;;;5.20;4.07;;;23.60;43.60;;;;;;5061724;28;20505;-43
2022/03/30 01:03:17;;;;;;;5.15;4.65;;;23.50;43.60;;;;;;5061512;28;20033;-42
2022/03/30 01:05:44;;;;;;;5.68;4.97;;;23.50;43.70;;;;;;5061922;28;20102;-42
2022/03/30 01:08:10;;;;;;;5.82;4.88;;;23.50;43.60;;;;;;5061635;28;20136;-42
2022/03/30 01:10:36;;;;;;;6.90;5.35;;;23.50;43.70;;;;;;5058937;28;20083;-42
2022/03/30 01:13:03;;;;;;;6.35;5.43;;;23.50;43.60;;;;;;5060982;28;20096;-42
2022/03/30 01:15:30;;;;;;;6.25;5.15;;;23.50;43.60;;;;;;5061461;28;20048;-42
2022/03/30 01:17:56;;;;;;;7.07;5.32;;;23.50;43.60;;;;;;5043637;28;20033;-42
2022/03/30 01:20:22;;;;;;;6.07;5.20;;;23.50;43.60;;;;;;5061597;28;20025;-42
2022/03/30 01:22:49;;;;;;;6.70;5.17;;;23.50;43.60;;;;;;5059835;28;20049;-41
2022/03/30 01:25:15;;;;;;;6.07;5.40;;;23.50;43.30;;;;;;5061685;28;20243;-42
2022/03/30 01:27:42;;;;;;;6.55;5.72;;;23.50;43.40;;;;;;5059497;28;20127;-43
2022/03/30 01:32:55;;;;;;;8.32;6.38;;;23.40;43.00;;;;;;5059582;28;20035;-42
2022/03/30 01:35:21;;;;;;;;;;;23.40;43.20;;;;;;5061947;28;20025;-43
2022/03/30 01:37:47;;;;;;;7.78;6.43;;;23.40;43.60;;;;;;5061153;28;20000;-43
2022/03/30 01:40:13;;;;;;;8.30;6.25;;;23.40;43.20;;;;;;5060721;28;20037;-43
2022/03/30 01:42:39;;;;;;;9.10;7.27;;;23.40;43.20;;;;;;5060836;28;20021;-42
2022/03/30 01:45:06;;;;;;;9.73;7.93;;;23.40;43.10;;;;;;5059866;28;20029;-42
2022/03/30 01:47:32;;;;;;;8.48;7.38;;;23.30;43.10;;;;;;5061139;28;20120;-42
2022/03/30 01:49:58;;;;;;;8.88;7.30;;;23.30;43.10;;;;;;5061458;28;20029;-43
2022/03/30 01:52:24;;;;;;;10.27;7.43;;;23.30;43.10;;;;;;5061571;28;20134;-42
2022/03/30 01:54:50;;;;;;;9.65;8.00;;;23.30;43.00;;;;;;5061575;28;20116;-42
2022/03/30 01:57:16;;;;;;;9.07;7.80;;;23.30;42.90;;;;;;5064308;28;20043;-42
2022/03/30 01:59:43;;;;;;;9.13;7.75;;;23.30;42.90;;;;;;5064300;28;20049;-42
2022/03/30 02:02:11;;;;;;;10.35;9.18;;;23.30;42.90;;;;;;5063254;28;20132;-42
2022/03/30 02:04:36;;;;;;;;;;;23.30;43.00;;;;;;5062423;28;20082;-42
2022/03/30 02:07:03;;;;;;;11.68;8.60;;;23.20;42.90;;;;;;5057979;28;20655;-42
2022/03/30 02:09:29;;;;;;;9.77;8.70;;;23.30;42.90;;;;;;5064251;28;20021;-43
2022/03/30 02:11:56;;;;;;;10.40;8.95;;;23.20;42.80;;;;;;5063500;28;20036;-43
2022/03/30 02:14:22;;;;;;;10.57;9.02;;;23.20;42.80;;;;;;5064416;28;20056;-42
2022/03/30 02:16:49;;;;;;;10.38;9.25;;;23.20;42.90;;;;;;5064816;28;20040;-42
2022/03/30 02:19:15;;;;;;;11.93;10.35;;;23.20;42.80;;;;;;5064500;28;20029;-43
2022/03/30 02:21:41;;;;;;;10.02;8.90;;;23.20;42.70;;;;;;5064721;28;20051;-42
2022/03/30 02:24:07;;;;;;;11.00;9.90;;;23.20;42.80;;;;;;5064269;28;20036;-42
2022/03/30 02:26:34;;;;;;;13.23;10.60;;;23.10;42.60;;;;;;5064927;28;20032;-43
2022/03/30 02:29:00;;;;;;;11.77;10.13;;;23.10;42.60;;;;;;5064951;28;20112;-43
2022/03/30 02:31:26;;;;;;;13.57;10.23;;;23.10;42.60;;;;;;5064812;28;20733;-42
2022/03/30 02:33:52;;;;;;;13.93;11.15;;;23.10;42.60;;;;;;5064493;28;20037;-42
2022/03/30 02:36:18;;;;;;;12.00;10.77;;;23.10;42.60;;;;;;5055946;28;20081;-43
2022/03/30 02:38:44;;;;;;;12.40;10.82;;;23.10;42.60;;;;;;5062023;28;20033;-42
2022/03/30 02:41:11;;;;;;;12.05;10.45;;;23.10;42.60;;;;;;5063777;28;20041;-42
2022/03/30 02:43:38;;;;;;;13.25;10.80;;;23.00;42.60;;;;;;5064417;28;20029;-43
2022/03/30 02:46:04;;;;;;;13.15;11.15;;;23.00;42.60;;;;;;5062229;28;20041;-40
2022/03/30 02:48:33;;;;;;;12.27;10.63;;;23.00;42.70;;;;;;5063456;28;20029;-40
2022/03/30 02:51:00;;;;;;;13.57;11.55;;;23.00;42.60;;;;;;5063719;28;20029;-40
2022/03/30 02:53:26;;;;;;;14.10;11.40;;;23.00;42.60;;;;;;5064002;28;20025;-40
2022/03/30 02:55:52;;;;;;;13.85;11.68;;;23.00;42.60;;;;;;5063938;28;20040;-40
2022/03/30 02:58:19;;;;;;;14.50;12.13;;;22.90;42.60;;;;;;5064066;28;20100;-40
2022/03/30 03:00:45;;;;;;;13.60;11.30;;;22.90;42.50;;;;;;5054948;28;20033;-40
2022/03/30 03:03:11;;;;;;;14.18;11.35;;;22.90;42.60;;;;;;5062497;28;20047;-41
2022/03/30 03:05:38;;;;;;;13.40;11.85;;;22.90;42.60;;;;;;5063102;28;20025;-40
2022/03/30 03:08:05;;;;;;;14.63;12.35;;;22.80;42.50;;;;;;5062427;28;20032;-40
2022/03/30 03:10:32;;;;;;;;;;;22.80;42.50;;;;;;5063353;28;20033;-40
2022/03/30 03:12:58;;;;;;;14.20;10.85;;;22.80;42.50;;;;;;5063096;28;20540;-41
2022/03/30 03:15:24;;;;;;;13.55;11.45;;;22.80;42.60;;;;;;5045143;28;20061;-40
2022/03/30 03:17:51;;;;;;;14.48;12.00;;;22.80;42.60;;;;;;5043762;28;20561;-40
2022/03/30 03:20:17;;;;;;;13.95;12.00;;;22.80;42.60;;;;;;5063631;28;20032;-40
2022/03/30 03:22:43;;;;;;;13.65;11.63;;;22.70;42.60;;;;;;5084138;28;20046;-40
2022/03/30 03:25:10;;;;;;;13.60;11.52;;;22.70;42.60;;;;;;5072436;28;20017;-41
2022/03/30 03:27:37;;;;;;;13.30;11.38;;;22.70;42.60;;;;;;5063798;28;20036;-41
2022/03/30 03:30:04;;;;;;;13.65;12.20;;;22.70;42.60;;;;;;5063841;28;20025;-40
2022/03/30 03:32:30;;;;;;;;;;;22.70;42.70;;;;;;5064474;28;20075;-40
2022/03/30 03:34:56;;;;;;;13.40;11.30;;;22.70;42.70;;;;;;5061575;28;19916;-41
2022/03/30 03:37:22;;;;;;;13.02;11.63;;;22.70;42.70;;;;;;5063354;28;20108;-40
2022/03/30 03:39:48;;;;;;;13.43;11.85;;;22.60;42.60;;;;;;5060455;28;20017;-41
2022/03/30 03:42:16;;;;;;;13.95;11.85;;;22.60;42.70;;;;;;5043662;28;20048;-40
2022/03/30 03:44:42;;;;;;;12.88;10.95;;;22.60;42.70;;;;;;5060444;28;20029;-40
2022/03/30 03:47:09;;;;;;;14.45;12.13;;;22.60;42.70;;;;;;5062811;28;20032;-41
2022/03/30 03:49:39;;;;;;;13.77;11.50;;;22.50;42.70;;;;;;5063197;28;20036;-40
2022/03/30 03:52:06;;;;;;;14.13;11.95;;;22.50;42.60;;;;;;5060686;28;20564;-41
2022/03/30 03:54:32;;;;;;;13.05;11.55;;;22.50;42.80;;;;;;5049336;28;20033;-41
2022/03/30 03:56:58;;;;;;;13.40;11.95;;;22.50;42.70;;;;;;5063237;28;20044;-41
2022/03/30 03:59:44;;;;;;;14.77;12.52;;;22.50;42.80;;;;;;5039298;28;20034;-40
2022/03/30 04:02:11;;;;;;;15.20;12.80;;;22.40;42.70;;;;;;5039706;28;20037;-40
2022/03/30 04:04:40;;;;;;;14.45;12.15;;;22.50;42.80;;;;;;5039231;28;20052;-40
2022/03/30 04:07:06;;;;;;;13.77;11.85;;;22.40;42.80;;;;;;5039602;28;20157;-41
2022/03/30 04:09:32;;;;;;;17.23;13.40;;;22.40;42.80;;;;;;5038875;28;20033;-41
2022/03/30 04:11:58;;;;;;;15.85;13.07;;;22.40;42.70;;;;;;5020004;28;20097;-41
2022/03/30 04:14:24;;;;;;;14.43;12.82;;;22.40;42.80;;;;;;5033900;28;20080;-40
2022/03/30 04:16:51;;;;;;;15.35;13.10;;;22.30;42.80;;;;;;5051109;28;20076;-40
2022/03/30 04:19:17;;;;;;;15.60;13.68;;;22.30;42.90;;;;;;5059606;28;20021;-41
2022/03/30 04:21:43;;;;;;;16.80;13.43;;;22.30;42.80;;;;;;5058680;28;20132;-42
2022/03/30 04:24:09;;;;;;;16.77;13.95;;;22.30;42.90;;;;;;5039806;28;20494;-45
2022/03/30 04:26:36;;;;;;;15.88;13.32;;;22.30;42.90;;;;;;5040267;28;20037;-46
2022/03/30 04:29:03;;;;;;;14.65;13.07;;;22.30;42.90;;;;;;5039326;28;20040;-44
2022/03/30 04:31:29;;;;;;;14.82;13.32;;;22.30;42.90;;;;;;5038662;28;20030;-45
2022/03/30 04:33:55;;;;;;;16.75;14.00;;;22.30;42.90;;;;;;5039414;28;20033;-44
2022/03/30 04:36:21;;;;;;;16.02;13.57;;;22.20;42.90;;;;;;5040490;28;20041;-46
2022/03/30 04:38:47;;;;;;;17.27;14.23;;;22.20;42.90;;;;;;5050287;28;20070;-44
2022/03/30 04:41:14;;;;;;;18.10;14.73;;;22.20;42.90;;;;;;5060899;28;20052;-44
2022/03/30 04:43:40;;;;;;;17.38;14.63;;;22.20;43.00;;;;;;5058424;28;20029;-45
2022/03/30 04:46:08;;;;;;;19.08;14.43;;;22.10;43.00;;;;;;5062253;28;20044;-45
2022/03/30 04:48:35;;;;;;;17.80;14.70;;;22.20;43.00;;;;;;5062028;28;20053;-45
2022/03/30 04:51:02;;;;;;;19.13;15.00;;;22.10;43.00;;;;;;5063997;28;20024;-46
2022/03/30 04:53:28;;;;;;;15.40;13.15;;;22.10;43.00;;;;;;5062545;28;20671;-44
2022/03/30 04:55:54;;;;;;;17.90;14.68;;;22.10;43.00;;;;;;5062177;28;20088;-45
2022/03/30 04:58:20;;;;;;;16.35;14.63;;;22.10;43.00;;;;;;5062434;28;20073;-44
2022/03/30 05:00:46;;;;;;;19.35;15.55;;;22.10;43.10;;;;;;5061911;28;20055;-46
2022/03/30 05:03:12;;;;;;;17.08;14.80;;;22.10;43.10;;;;;;5062041;28;20187;-45
2022/03/30 05:05:39;;;;;;;19.02;16.02;;;22.00;43.10;;;;;;5081588;28;20178;-41
2022/03/30 05:08:05;;;;;;;19.80;15.85;;;22.00;43.10;;;;;;5077640;28;20025;-44
2022/03/30 05:10:31;;;;;;;17.45;14.40;;;22.00;43.20;;;;;;5060783;28;20037;-44
2022/03/30 05:13:00;;;;;;;18.40;15.25;;;22.00;43.20;;;;;;5062069;28;20715;-45
2022/03/30 05:15:28;;;;;;;18.15;15.07;;;22.00;43.20;;;;;;5061618;28;20068;-45
2022/03/30 05:17:55;;;;;;;17.08;14.55;;;22.00;43.20;;;;;;5062034;28;20047;-45
2022/03/30 05:20:21;;;;;;;16.70;14.37;;;21.90;43.20;;;;;;5058114;28;20751;-45
2022/03/30 05:22:47;;;;;;;17.58;14.80;;;21.90;43.30;;;;;;5054196;28;20325;-44
2022/03/30 05:25:15;;;;;;;20.08;15.23;;;21.90;43.30;;;;;;5054012;28;20032;-44
2022/03/30 05:27:42;;;;;;;17.80;14.27;;;21.90;43.30;;;;;;5061869;28;20090;-43
2022/03/30 05:30:09;;;;;;;17.63;15.02;;;21.90;43.30;;;;;;5064486;28;20029;-43
2022/03/30 05:32:35;;;;;;;16.40;13.75;;;21.90;43.40;;;;;;5065567;28;20111;-44
2022/03/30 05:35:02;;;;;;;17.08;14.48;;;21.80;43.40;;;;;;5062289;28;20025;-44
2022/03/30 05:37:30;;;;;;;17.77;14.60;;;21.80;43.40;;;;;;5063610;28;20041;-44
2022/03/30 05:39:56;;;;;;;17.73;14.57;;;21.80;43.40;;;;;;5046805;28;20573;-43
2022/03/30 05:42:22;;;;;;;17.17;13.80;;;21.80;43.40;;;;;;5047054;28;20034;-45
2022/03/30 05:44:49;;;;;;;16.13;13.88;;;21.80;43.50;;;;;;5065676;28;20104;-42
2022/03/30 05:47:16;;;;;;;18.27;14.73;;;21.80;43.50;;;;;;5062987;28;20082;-42
2022/03/30 05:49:42;;;;;;;17.05;14.05;;;21.70;43.50;;;;;;5065639;28;20089;-42
2022/03/30 05:52:08;;;;;;;16.65;13.85;;;21.70;43.50;;;;;;5065425;28;20029;-43
2022/03/30 05:54:35;;;;;;;16.23;14.05;;;21.70;43.50;;;;;;5065677;28;20032;-43
2022/03/30 05:57:01;;;;;;;17.95;13.73;;;21.70;43.60;;;;;;5065725;28;20480;-42
2022/03/30 05:59:32;;;;;;;15.10;13.30;;;21.70;43.60;;;;;;5065761;28;20040;-42
2022/03/30 06:01:59;;;;;;;16.45;13.15;;;21.70;43.70;;;;;;5049696;28;20124;-42
2022/03/30 06:04:25;;;;;;;18.00;14.00;;;21.70;43.70;;;;;;5045413;28;20029;-43
2022/03/30 06:06:51;;;;;;;16.50;13.68;;;21.60;43.70;;;;;;5045502;28;20255;-43
2022/03/30 06:09:18;;;;;;;16.95;13.73;;;21.60;43.60;;;;;;5060227;28;20060;-42
2022/03/30 06:11:44;;;;;;;18.33;14.15;;;21.60;43.70;;;;;;5064339;28;20032;-42
2022/03/30 06:14:11;;;;;;;15.57;13.73;;;21.60;43.80;;;;;;5064301;28;20139;-42
2022/03/30 06:16:37;;;;;;;16.52;14.02;;;21.60;43.90;;;;;;5064730;28;20052;-42
2022/03/30 06:19:03;;;;;;;16.88;13.43;;;21.60;43.80;;;;;;5065002;28;20055;-43
2022/03/30 06:21:29;;;;;;;16.65;13.48;;;21.60;43.80;;;;;;5065172;28;20104;-43
2022/03/30 06:23:56;;;;;;;15.45;13.23;;;21.50;43.80;;;;;;5064128;28;20053;-42
2022/03/30 06:26:23;;;;;;;15.77;12.57;;;21.50;43.90;;;;;;5043756;28;20038;-42
2022/03/30 06:28:49;;;;;;;15.20;12.57;;;21.50;43.90;;;;;;5045080;28;20033;-42
2022/03/30 06:31:18;;;;;;;17.00;14.13;;;21.50;43.90;;;;;;5048047;28;20013;-43
2022/03/30 06:33:45;;;;;;;15.63;13.18;;;21.50;44.10;;;;;;5064555;28;20096;-44
2022/03/30 06:36:12;;;;;;;15.73;13.60;;;21.50;44.00;;;;;;5064900;28;20036;-42
2022/03/30 06:38:38;;;;;;;14.88;13.05;;;21.50;44.00;;;;;;5064570;28;20044;-43
2022/03/30 06:41:07;;;;;;;16.52;13.13;;;21.40;44.00;;;;;;5063796;28;20112;-43
2022/03/30 06:43:34;;;;;;;15.73;13.10;;;21.40;44.00;;;;;;5060166;28;20037;-42
2022/03/30 06:46:00;;;;;;;13.60;11.82;;;21.40;44.20;;;;;;5044400;28;20099;-43
2022/03/30 06:48:26;;;;;;;14.25;11.57;;;21.40;44.70;;;;;;5070988;28;20520;-41
2022/03/30 06:50:52;;;;;;;14.68;11.70;;;21.40;45.10;;;;;;5052057;28;20028;-42
2022/03/30 06:53:18;;;;;;;14.53;11.90;;;21.40;45.20;;;;;;5054210;28;20048;-43
2022/03/30 06:55:45;;;;;;;14.35;11.60;;;21.40;45.30;;;;;;5055964;28;20035;-42
2022/03/30 06:58:11;;;;;;;14.57;12.40;;;21.40;45.40;;;;;;5058960;28;20151;-43
2022/03/30 07:00:37;;;;;;;14.35;12.30;;;21.40;45.30;;;;;;5053392;28;20044;-44
2022/03/30 07:03:03;;;;;;;15.00;12.50;;;21.40;45.20;;;;;;5055882;28;20037;-43
2022/03/30 07:05:31;;;;;;;14.73;11.77;;;21.30;45.10;;;;;;5055540;28;20044;-42
2022/03/30 07:10:43;;;;;;;13.75;11.48;;;21.30;45.10;;;;;;5059584;28;20098;-43
2022/03/30 07:13:09;;;;;;;13.48;11.50;;;21.30;45.10;;;;;;5050212;28;20083;-41
2022/03/30 07:15:35;;;;;;;12.98;11.45;;;21.30;45.00;;;;;;5048474;28;20049;-43
2022/03/30 07:18:01;;;;;;;12.27;10.23;;;21.30;45.30;;;;;;5049625;28;20105;-43
2022/03/30 07:20:30;;;;;;;12.95;10.70;;;21.30;45.70;;;;;;5046757;28;20037;-43
2022/03/30 07:22:58;;;;;;;12.45;10.48;;;21.30;45.80;;;;;;5054044;28;20087;-42
2022/03/30 07:25:24;;;;;;;11.50;10.30;;;21.30;46.00;;;;;;5047342;28;20028;-42
2022/03/30 07:27:52;;;;;;;13.25;10.45;;;21.30;46.00;;;;;;5050920;28;20064;-42
2022/03/30 07:30:19;;;;;;;14.30;10.82;;;21.30;45.90;;;;;;5052217;28;20032;-43
2022/03/30 07:32:46;;;;;;;14.55;10.70;;;21.30;45.80;;;;;;5050460;28;20036;-42
2022/03/30 07:35:15;;;;;;;11.27;9.93;;;21.30;45.70;;;;;;5054091;28;20051;-42
2022/03/30 07:37:41;;;;;;;11.88;9.77;;;21.30;45.70;;;;;;5055700;28;20050;-43
2022/03/30 07:40:08;;;;;;;12.30;9.88;;;21.30;45.70;;;;;;5061987;28;20033;-42
2022/03/30 07:42:34;;;;;;;11.85;8.82;;;21.30;46.10;;;;;;5063743;28;20055;-42
2022/03/30 07:45:01;;;;;;;10.80;9.18;;;21.30;46.40;;;;;;5066172;28;20070;-43
2022/03/30 07:47:27;;;;;;;12.55;9.15;;;21.30;46.50;;;;;;5075257;28;20127;-42
2022/03/30 07:49:53;;;;;;;10.07;8.82;;;21.30;46.60;;;;;;5062913;28;20025;-42
2022/03/30 07:52:22;;;;;;;11.35;9.05;;;21.30;46.60;;;;;;5061923;28;20056;-43
2022/03/30 07:54:48;;;;;;;10.35;9.02;;;21.30;46.40;;;;;;5059868;28;20021;-44
2022/03/30 07:57:15;;;;;;;10.13;8.82;;;21.30;46.40;;;;;;5062842;28;20071;-42
2022/03/30 07:59:41;;;;;;;11.88;9.60;;;21.30;46.30;;;;;;5062936;28;20033;-43
2022/03/30 08:02:09;;;;;;;10.10;8.75;;;21.30;46.20;;;;;;5066111;28;20045;-43
2022/03/30 08:04:35;;;;;;;8.90;7.88;;;21.30;46.40;;;;;;5063066;28;20025;-42
2022/03/30 08:07:01;;;;;;;10.20;8.35;;;21.30;46.60;;;;;;5062366;28;20029;-42
2022/03/30 08:09:27;;;;;;;9.90;8.82;;;21.30;46.80;;;;;;5062456;28;20102;-43
2022/03/30 08:11:53;;;;;;;9.63;7.88;;;21.30;46.70;;;;;;5062467;28;20037;-42
2022/03/30 08:14:20;;;;;;;8.93;7.88;;;21.40;46.80;;;;;;5057954;28;20067;-43
2022/03/30 08:16:46;;;;;;;8.73;7.82;;;21.30;46.60;;;;;;5063210;28;20029;-43
2022/03/30 08:19:12;;;;;;;8.88;7.88;;;21.40;46.60;;;;;;5068854;28;20036;-42
2022/03/30 08:24:23;;;;;;;9.25;7.40;;;21.30;46.40;;;;;;5062488;28;20051;-44
2022/03/30 08:26:49;;;;;;;8.20;7.00;;;21.30;46.40;;;;;;5062658;28;20047;-42
2022/03/30 08:29:16;;;;;;;9.00;7.78;;;21.40;46.70;;;;;;5062718;28;20059;-42
2022/03/30 08:31:42;;;;;;;9.80;7.50;;;21.40;46.90;;;;;;5050835;28;20063;-42
2022/03/30 08:34:09;;;;;;;8.73;7.70;;;21.40;47.00;;;;;;5045404;28;20013;-42
2022/03/30 08:36:35;;;;;;;8.95;7.63;;;21.40;47.00;;;;;;5071155;28;20066;-43
2022/03/30 08:39:05;;;;;;;8.85;7.25;;;21.40;46.90;;;;;;5064768;28;20039;-43
2022/03/30 08:41:31;;;;;;;8.95;7.20;;;21.40;46.80;;;;;;5056004;28;20029;-42
2022/03/30 08:43:59;;;;;;;8.15;7.35;;;21.40;46.70;;;;;;5060897;28;20043;-43
2022/03/30 08:46:26;;;;;;;8.50;7.22;;;21.40;46.70;;;;;;5061812;28;20021;-42
2022/03/30 08:48:52;;;;;;;8.10;6.70;;;21.40;46.60;;;;;;5081595;28;20030;-44
2022/03/30 08:51:19;;;;;;;8.30;6.80;;;21.40;46.80;;;;;;5062360;28;20048;-43
2022/03/30 08:53:47;;;;;;;7.57;6.78;;;21.40;47.00;;;;;;5061149;28;20060;-44
2022/03/30 08:56:13;;;;;;;7.47;6.70;;;21.40;47.00;;;;;;5062076;28;20033;-43
2022/03/30 08:58:39;;;;;;;7.43;6.60;;;21.40;47.00;;;;;;5062287;28;20037;-42
2022/03/30 09:01:09;;;;;;;9.40;6.78;;;21.40;47.00;;;;;;5061981;28;20029;-43
2022/03/30 09:03:35;;;;;;;8.70;7.22;;;21.40;46.90;;;;;;5075986;28;20025;-43
2022/03/30 09:06:02;;;;;;;8.05;6.70;;;21.40;46.80;;;;;;5062509;28;20074;-44
2022/03/30 09:08:28;;;;;;;7.05;6.30;;;21.40;46.70;;;;;;5062035;28;20025;-43
2022/03/30 09:10:56;;;;;;;6.88;6.18;;;21.40;46.80;;;;;;5059764;28;20103;-43
2022/03/30 09:13:22;;;;;;;7.22;6.13;;;21.40;47.10;;;;;;5057668;28;20048;-43
2022/03/30 09:15:50;;;;;;;6.90;6.20;;;21.40;47.20;;;;;;5062259;28;20084;-44
2022/03/30 09:18:16;;;;;;;7.20;6.13;;;21.40;47.20;;;;;;5060923;28;20329;-43
2022/03/30 09:20:47;;;;;;;7.60;6.63;;;21.40;47.20;;;;;;5058811;28;20311;-42
2022/03/30 09:23:14;;;;;;;8.38;6.57;;;21.40;47.00;;;;;;5062047;28;20037;-42
2022/03/30 09:26:01;;;;;;;7.60;6.80;;;21.40;47.00;;;;;;5061734;28;20032;-42
2022/03/30 09:28:27;;;;;;;7.68;6.15;;;21.40;46.90;;;;;;5041777;28;20029;-42
2022/03/30 09:30:53;;;;;;;7.57;5.93;;;21.40;46.70;;;;;;5058457;28;20041;-42
2022/03/30 09:33:20;;;;;;;6.70;5.70;;;21.40;46.90;;;;;;5058980;28;20088;-43
2022/03/30 09:35:46;;;;;;;7.18;6.07;;;21.40;47.20;;;;;;5059594;28;20032;-43
2022/03/30 09:38:17;;;;;;;6.00;5.20;;;21.50;47.30;;;;;;5059118;28;20514;-42
2022/03/30 09:40:44;;;;;;;7.25;6.00;;;21.50;47.30;;;;;;5058729;28;20048;-43
2022/03/30 09:43:34;;;;;;;7.50;6.40;;;21.50;47.20;;;;;;5058980;28;20084;-43
2022/03/30 09:46:06;;;;;;;6.38;5.72;;;21.40;47.00;;;;;;5039174;28;20029;-43
2022/03/30 09:48:35;;;;;;;6.93;6.07;;;21.40;47.00;;;;;;5038390;28;20184;-43
2022/03/30 09:51:06;;;;;;;6.47;5.72;;;21.40;46.90;;;;;;5058785;28;20098;-42
2022/03/30 09:53:34;;;;;;;5.47;4.97;;;21.40;47.00;;;;;;5058722;28;20041;-43
2022/03/30 09:56:06;;;;;;;;;;;21.50;47.30;;;;;;5056535;28;20033;-42
2022/03/30 09:58:34;;;;;;;6.07;5.43;;;21.50;47.30;;;;;;5040818;28;19921;-43
2022/03/30 10:01:10;;;;;;;6.32;5.45;;;21.40;47.20;;;;;;5046885;28;20032;-43
2022/03/30 10:03:51;;;;;;;6.80;5.95;;;21.50;47.20;;;;;;5045066;28;20118;-43
2022/03/30 10:06:22;;;;;;;5.97;5.38;;;21.50;47.20;;;;;;5050572;28;20683;-42
2022/03/30 10:08:49;;;;;;;7.25;5.72;;;21.50;47.10;;;;;;5061360;28;20040;-43
2022/03/30 10:11:18;;;;;;;;;;;21.50;47.10;;;;;;5060265;28;20036;-43
2022/03/30 10:13:46;;;;;;;5.65;4.95;;;21.50;47.50;;;;;;5057387;28;19921;-42
2022/03/30 10:16:13;;;;;;;5.57;4.97;;;21.50;47.20;;;;;;5063160;28;20053;-43
2022/03/30 10:18:40;;;;;;;7.38;5.50;;;21.50;47.40;;;;;;5064285;28;20029;-42
2022/03/30 10:21:27;;;;;;;5.97;5.32;;;21.50;47.40;;;;;;5065183;28;20036;-43
2022/03/30 10:24:15;;;;;;;5.65;4.97;;;21.50;47.40;;;;;;5064602;28;20037;-42
2022/03/30 10:26:52;;;;;;;6.13;5.50;;;21.50;47.30;;;;;;5065124;28;20036;-43
2022/03/30 10:29:20;;;;;;;5.95;5.22;;;21.50;47.20;;;;;;5064304;28;20476;-43
2022/03/30 10:32:17;;;;;;;6.85;5.30;;;21.50;47.10;;;;;;5063212;28;20045;-44
2022/03/30 10:35:05;;;;;;;6.18;5.05;;;21.50;47.10;;;;;;5064484;28;20910;-42
2022/03/30 10:37:37;;;;;;;5.55;4.72;;;21.50;47.20;;;;;;5064720;28;20752;-43
2022/03/30 10:40:05;;;;;;;6.80;5.03;;;21.50;47.50;;;;;;5067202;28;20029;-43
2022/03/30 10:42:47;;;;;;;5.20;4.68;;;21.50;47.40;;;;;;5064691;28;20036;-44
2022/03/30 10:45:28;;;;;;;6.50;5.20;;;21.50;47.40;;;;;;5064363;28;20044;-42
2022/03/30 10:48:14;;;;;;;6.13;5.07;;;21.50;47.30;;;;;;5062942;28;20510;-43
2022/03/30 10:50:45;;;;;;;6.20;5.35;;;21.50;47.20;;;;;;5063934;28;20036;-42
2022/03/30 10:53:31;;;;;;;5.75;5.15;;;21.50;47.20;;;;;;5064383;28;20123;-42
2022/03/30 10:56:15;;;;;;;5.65;4.63;;;21.50;47.70;;;;;;5044857;28;20045;-43
2022/03/30 10:58:55;;;;;;;4.75;4.07;;;21.50;47.30;;;;;;5064411;28;20044;-42
2022/03/30 11:01:22;;;;;;;6.30;4.78;;;21.50;47.50;;;;;;5064264;28;20029;-44
2022/03/30 11:04:13;;;;;;;5.10;4.60;;;21.50;47.50;;;;;;5060931;28;20096;-43
2022/03/30 11:06:40;;;;;;;5.97;4.72;;;21.50;47.40;;;;;;5064340;28;20036;-43
2022/03/30 11:09:19;;;;;;;5.60;4.80;;;21.50;47.40;;;;;;5063635;28;20124;-43
2022/03/30 11:11:55;;;;;;;5.28;4.78;;;21.50;47.30;;;;;;5060913;28;20103;-42
2022/03/30 11:14:23;;;;;;;5.05;4.50;;;21.50;47.20;;;;;;5062627;28;20076;-42
2022/03/30 11:16:50;;;;;;;6.28;4.60;;;21.50;47.20;;;;;;5063906;28;20025;-42
2022/03/30 11:19:17;;;;;;;6.03;4.25;;;21.50;47.30;;;;;;5058356;28;20034;-42
2022/03/30 11:22:08;;;;;;;5.13;4.10;;;21.50;47.70;;;;;;5063660;28;20047;-43
2022/03/30 11:24:34;;;;;;;5.32;4.35;;;21.50;47.60;;;;;;5062405;28;20029;-43
2022/03/30 11:27:00;;;;;;;4.38;3.75;;;21.50;47.60;;;;;;5062021;28;20115;-42
2022/03/30 11:29:42;;;;;;;5.18;3.95;;;21.50;47.50;;;;;;5063396;28;20104;-43
2022/03/30 11:32:23;;;;;;;5.18;3.90;;;21.50;47.50;;;;;;5063530;28;20051;-42
2022/03/30 11:34:56;;;;;;;4.88;4.20;;;21.50;47.40;;;;;;5063840;28;20027;-43
2022/03/30 11:37:35;;;;;;;5.38;3.95;;;21.50;47.40;;;;;;5052394;28;20048;-42
2022/03/30 11:40:05;;;;;;;4.95;3.55;;;21.50;47.40;;;;;;5055118;28;20029;-43
2022/03/30 11:42:31;;;;;;;5.30;3.90;;;21.50;47.70;;;;;;5066598;28;20517;-43
2022/03/30 11:45:12;;;;;;;4.35;3.50;;;21.60;47.80;;;;;;5063152;28;20032;-42
2022/03/30 11:48:01;;;;;;;5.57;3.92;;;21.60;47.80;;;;;;5064584;28;20037;-43
2022/03/30 11:50:35;;;;;;;6.13;4.25;;;21.60;47.70;;;;;;5063118;28;20032;-42
2022/03/30 11:53:11;;;;;;;4.55;3.72;;;21.60;47.60;;;;;;5060073;28;20569;-43
2022/03/30 11:55:49;;;;;;;4.80;3.85;;;21.60;47.60;;;;;;5062611;28;20036;-43
2022/03/30 11:58:34;;;;;;;5.05;3.95;;;21.60;47.50;;;;;;5061904;28;20037;-43
2022/03/30 12:01:05;;;;;;;4.00;3.20;;;21.60;47.60;;;;;;5060086;28;20037;-42
2022/03/30 12:03:31;;;;;;;4.15;3.15;;;21.60;47.90;;;;;;5063163;28;20115;-44
2022/03/30 12:05:58;;;;;;;4.32;2.88;;;21.60;47.90;;;;;;5049114;28;20036;-42
2022/03/30 12:08:25;;;;;;;4.30;3.55;;;21.60;47.90;;;;;;5057275;28;20415;-43
2022/03/30 12:10:56;;;;;;;5.87;3.53;;;21.60;47.80;;;;;;5058697;28;20033;-42
2022/03/30 12:13:23;;;;;;;4.20;3.55;;;21.60;47.80;;;;;;5062977;28;20278;-43
2022/03/30 12:16:02;;;;;;;4.97;3.63;;;21.60;47.60;;;;;;5062698;28;20063;-44
2022/03/30 12:18:30;;;;;;;4.10;3.40;;;21.60;47.60;;;;;;5062665;28;20401;-43
2022/03/30 12:20:59;;;;;;;;;;;21.60;47.60;;;;;;5062817;28;20025;-43
2022/03/30 12:23:25;;;;;;;3.58;2.60;;;21.60;47.90;;;;;;5062715;28;19932;-43
2022/03/30 12:25:53;;;;;;;4.85;3.10;;;21.60;48.00;;;;;;5060803;28;20033;-42
2022/03/30 12:28:32;;;;;;;4.75;3.83;;;21.60;48.00;;;;;;5051581;28;20029;-43
2022/03/30 12:30:58;;;;;;;3.55;3.25;;;21.60;48.00;;;;;;5059387;28;20029;-43
2022/03/30 12:33:24;;;;;;;5.55;3.28;;;21.60;47.90;;;;;;5060741;28;20021;-45
2022/03/30 12:35:52;;;;;;;4.15;3.45;;;21.60;47.90;;;;;;5062049;28;20059;-42
2022/03/30 12:38:20;;;;;;;4.30;2.95;;;21.60;47.90;;;;;;5061678;28;20072;-43
2022/03/30 12:40:48;;;;;;;4.90;3.05;;;21.60;47.80;;;;;;5054677;28;20038;-43
2022/03/30 12:43:14;;;;;;;3.70;3.30;;;21.60;47.80;;;;;;5053623;28;20049;-44
2022/03/30 12:45:54;;;;;;;3.95;2.85;;;21.60;48.10;;;;;;5048004;28;20048;-43
2022/03/30 12:48:41;;;;;;;4.03;2.70;;;21.60;48.20;;;;;;5061362;28;20079;-43
2022/03/30 12:51:17;;;;;;;3.28;2.78;;;21.70;48.20;;;;;;5062094;28;20033;-43
2022/03/30 12:53:46;;;;;;;3.80;2.55;;;21.60;48.10;;;;;;5062250;28;20047;-44
2022/03/30 12:56:17;;;;;;;5.53;3.17;;;21.60;48.00;;;;;;5060603;28;20103;-43